sensor_id;sensor_type;location;lat;lon;timestamp;pressure;altitude;pressure_sealevel;temperature;humidity
73817;BME280;62146;53.232;-1.304;2023-02-01T00:00:23;100878.91;;;6.58;100.00
73817;BME280;62146;53.232;-1.304;2023-02-01T00:02:50;100884.00;;;6.60;100.00
73817;BME280;62146;53.232;-1.304;2023-02-01T00:05:17;100870.59;;;6.61;100.00
73817;BME280;62146;53.232;-1.304;2023-02-01T00:07:47;100875.69;;;6.63;100.00
73817;BME280;62146;53.232;-1.304;2023-02-01T00:10:14;100862.31;;;6.64;100.00
73817;BME280;62146;53.232;-1.304;2023-02-01T00:12:41;100874.66;;;6.64;100.00
73817;BME280;62146;53.232;-1.304;2023-02-01T00:15:08;100861.91;;;6.67;100.00
73817;BME280;62146;53.232;-1.304;2023-02-01T00:17:34;100874.28;;;6.67;100.00
73817;BME280;62146;53.232;-1.304;2023-02-01T00:20:01;100856.00;;;6.65;100.00
73817;BME280;62146;53.232;-1.304;2023-02-01T00:22:28;100879.94;;;6.64;100.00
73817;BME280;62146;53.232;-1.304;2023-02-01T00:24:54;100887.84;;;6.64;100.00
73817;BME280;62146;53.232;-1.304;2023-02-01T00:27:21;100883.38;;;6.64;100.00
73817;BME280;62146;53.232;-1.304;2023-02-01T00:29:48;100886.81;;;6.65;100.00
73817;BME280;62146;53.232;-1.304;2023-02-01T00:32:14;100889.06;;;6.68;100.00
73817;BME280;62146;53.232;-1.304;2023-02-01T00:34:41;100907.50;;;6.68;100.00
73817;BME280;62146;53.232;-1.304;2023-02-01T00:37:08;100904.66;;;6.69;100.00
73817;BME280;62146;53.232;-1.304;2023-02-01T00:39:34;100913.19;;;6.71;100.00
73817;BME280;62146;53.232;-1.304;2023-02-01T00:42:01;100912.97;;;6.72;100.00
73817;BME280;62146;53.232;-1.304;2023-02-01T00:44:28;100902.44;;;6.72;100.00
73817;BME280;62146;53.232;-1.304;2023-02-01T00:47:00;100902.22;;;6.74;100.00
73817;BME280;62146;53.232;-1.304;2023-02-01T00:49:27;100894.13;;;6.75;100.00
73817;BME280;62146;53.232;-1.304;2023-02-01T00:51:55;100891.66;;;6.74;100.00
73817;BME280;62146;53.232;-1.304;2023-02-01T00:54:21;100881.97;;;6.74;100.00
73817;BME280;62146;53.232;-1.304;2023-02-01T00:56:48;100878.50;;;6.74;100.00
73817;BME280;62146;53.232;-1.304;2023-02-01T00:59:15;100884.78;;;6.73;100.00
73817;BME280;62146;53.232;-1.304;2023-02-01T01:01:41;100891.28;;;6.70;100.00
73817;BME280;62146;53.232;-1.304;2023-02-01T01:04:09;100884.38;;;6.69;100.00
73817;BME280;62146;53.232;-1.304;2023-02-01T01:06:36;100875.28;;;6.72;100.00
73817;BME280;62146;53.232;-1.304;2023-02-01T01:09:06;100868.38;;;6.71;100.00
73817;BME280;62146;53.232;-1.304;2023-02-01T01:11:36;100884.38;;;6.69;100.00
73817;BME280;62146;53.232;-1.304;2023-02-01T01:14:04;100846.69;;;6.69;100.00
73817;BME280;62146;53.232;-1.304;2023-02-01T01:16:31;100849.94;;;6.71;100.00
73817;BME280;62146;53.232;-1.304;2023-02-01T01:18:58;100848.09;;;6.71;100.00
73817;BME280;62146;53.232;-1.304;2023-02-01T01:21:25;100837.34;;;6.73;100.00
73817;BME280;62146;53.232;-1.304;2023-02-01T01:23:52;100834.94;;;6.71;100.00
73817;BME280;62146;53.232;-1.304;2023-02-01T01:26:22;100844.22;;;6.74;100.00
73817;BME280;62146;53.232;-1.304;2023-02-01T01:28:50;100841.41;;;6.69;100.00
73817;BME280;62146;53.232;-1.304;2023-02-01T01:31:19;100836.75;;;6.71;100.00
73817;BME280;62146;53.232;-1.304;2023-02-01T01:33:53;100846.88;;;6.74;100.00
73817;BME280;62146;53.232;-1.304;2023-02-01T01:36:20;100844.22;;;6.74;100.00
73817;BME280;62146;53.232;-1.304;2023-02-01T01:38:47;100840.63;;;6.75;100.00
73817;BME280;62146;53.232;-1.304;2023-02-01T01:41:17;100835.53;;;6.73;100.00
73817;BME280;62146;53.232;-1.304;2023-02-01T01:46:28;100834.53;;;6.74;100.00
73817;BME280;62146;53.232;-1.304;2023-02-01T01:49:13;100838.78;;;6.69;100.00
73817;BME280;62146;53.232;-1.304;2023-02-01T01:51:47;100856.00;;;6.71;100.00
73817;BME280;62146;53.232;-1.304;2023-02-01T01:54:21;100826.81;;;6.73;100.00
73817;BME280;62146;53.232;-1.304;2023-02-01T01:56:53;100835.13;;;6.70;100.00
73817;BME280;62146;53.232;-1.304;2023-02-01T01:59:23;100840.59;;;6.68;100.00
73817;BME280;62146;53.232;-1.304;2023-02-01T02:01:51;100833.50;;;6.69;100.00
73817;BME280;62146;53.232;-1.304;2023-02-01T02:04:19;100827.03;;;6.65;100.00
73817;BME280;62146;53.232;-1.304;2023-02-01T02:06:51;100833.53;;;6.63;100.00
73817;BME280;62146;53.232;-1.304;2023-02-01T02:09:23;100826.44;;;6.57;100.00
73817;BME280;62146;53.232;-1.304;2023-02-01T02:11:50;100829.06;;;6.57;100.00
73817;BME280;62146;53.232;-1.304;2023-02-01T02:14:18;100834.53;;;6.55;100.00
73817;BME280;62146;53.232;-1.304;2023-02-01T02:27:38;100840.03;;;6.47;100.00
73817;BME280;62146;53.232;-1.304;2023-02-01T02:35:54;100853.38;;;6.46;100.00
73817;BME280;62146;53.232;-1.304;2023-02-01T02:38:44;100855.19;;;6.45;100.00
73817;BME280;62146;53.232;-1.304;2023-02-01T02:41:19;100851.34;;;6.41;100.00
73817;BME280;62146;53.232;-1.304;2023-02-01T02:47:18;100852.97;;;6.42;100.00
73817;BME280;62146;53.232;-1.304;2023-02-01T02:50:28;100849.31;;;6.43;100.00
73817;BME280;62146;53.232;-1.304;2023-02-01T02:53:12;100847.50;;;6.44;100.00
73817;BME280;62146;53.232;-1.304;2023-02-01T02:55:59;100858.22;;;6.42;100.00
73817;BME280;62146;53.232;-1.304;2023-02-01T02:58:46;100851.94;;;6.43;100.00
73817;BME280;62146;53.232;-1.304;2023-02-01T03:01:32;100852.56;;;6.45;100.00
73817;BME280;62146;53.232;-1.304;2023-02-01T03:04:17;100856.41;;;6.43;100.00
73817;BME280;62146;53.232;-1.304;2023-02-01T03:06:44;100851.94;;;6.43;100.00
73817;BME280;62146;53.232;-1.304;2023-02-01T03:09:21;100876.50;;;6.44;100.00
73817;BME280;62146;53.232;-1.304;2023-02-01T03:11:49;100848.50;;;6.43;100.00
73817;BME280;62146;53.232;-1.304;2023-02-01T03:14:40;100852.56;;;6.45;100.00
73817;BME280;62146;53.232;-1.304;2023-02-01T03:17:14;100825.22;;;6.46;100.00
73817;BME280;62146;53.232;-1.304;2023-02-01T03:19:43;100816.72;;;6.44;100.00
73817;BME280;62146;53.232;-1.304;2023-02-01T03:22:20;100847.09;;;6.47;100.00
73817;BME280;62146;53.232;-1.304;2023-02-01T03:24:59;100843.84;;;6.45;100.00
73817;BME280;62146;53.232;-1.304;2023-02-01T03:27:40;100842.25;;;6.44;100.00
73817;BME280;62146;53.232;-1.304;2023-02-01T03:30:17;100851.94;;;6.43;100.00
73817;BME280;62146;53.232;-1.304;2023-02-01T03:32:50;100854.41;;;6.45;100.00
73817;BME280;62146;53.232;-1.304;2023-02-01T03:41:17;100808.78;;;6.51;100.00
73817;BME280;62146;53.232;-1.304;2023-02-01T03:46:35;100811.63;;;6.49;100.00
73817;BME280;62146;53.232;-1.304;2023-02-01T03:49:09;100811.25;;;6.52;100.00
73817;BME280;62146;53.232;-1.304;2023-02-01T03:51:38;100796.03;;;6.54;100.00
73817;BME280;62146;53.232;-1.304;2023-02-01T03:54:10;100805.16;;;6.52;100.00
73817;BME280;62146;53.232;-1.304;2023-02-01T03:56:42;100814.28;;;6.49;100.00
73817;BME280;62146;53.232;-1.304;2023-02-01T03:59:11;100811.63;;;6.49;100.00
73817;BME280;62146;53.232;-1.304;2023-02-01T04:01:38;100814.09;;;6.44;100.00
73817;BME280;62146;53.232;-1.304;2023-02-01T04:04:05;100819.53;;;6.43;100.00
73817;BME280;62146;53.232;-1.304;2023-02-01T04:06:32;100812.88;;;6.41;100.00
73817;BME280;62146;53.232;-1.304;2023-02-01T04:08:58;100809.00;;;6.37;100.00
73817;BME280;62146;53.232;-1.304;2023-02-01T04:11:25;100788.34;;;6.34;100.00
73817;BME280;62146;53.232;-1.304;2023-02-01T04:13:53;100812.63;;;6.36;100.00
73817;BME280;62146;53.232;-1.304;2023-02-01T04:16:20;100808.41;;;6.35;100.00
73817;BME280;62146;53.232;-1.304;2023-02-01T04:18:46;100800.50;;;6.35;100.00
73817;BME280;62146;53.232;-1.304;2023-02-01T04:21:13;100789.97;;;6.35;100.00
73817;BME280;62146;53.232;-1.304;2023-02-01T04:23:39;100799.28;;;6.37;100.00
73817;BME280;62146;53.232;-1.304;2023-02-01T04:26:06;100786.94;;;6.38;100.00
73817;BME280;62146;53.232;-1.304;2023-02-01T04:28:33;100772.53;;;6.34;100.00
73817;BME280;62146;53.232;-1.304;2023-02-01T04:30:59;100771.91;;;6.32;100.00
73817;BME280;62146;53.232;-1.304;2023-02-01T04:33:26;100769.09;;;6.33;100.00
73817;BME280;62146;53.232;-1.304;2023-02-01T04:35:52;100770.50;;;6.36;100.00
73817;BME280;62146;53.232;-1.304;2023-02-01T04:38:19;100764.66;;;6.34;100.00
73817;BME280;62146;53.232;-1.304;2023-02-01T04:40:49;100768.09;;;6.34;100.00
73817;BME280;62146;53.232;-1.304;2023-02-01T04:43:16;100769.28;;;6.32;100.00
73817;BME280;62146;53.232;-1.304;2023-02-01T04:45:50;100770.31;;;6.31;100.00
73817;BME280;62146;53.232;-1.304;2023-02-01T04:48:18;100778.03;;;6.32;100.00
73817;BME280;62146;53.232;-1.304;2023-02-01T04:50:46;100773.16;;;6.29;100.00
73817;BME280;62146;53.232;-1.304;2023-02-01T04:53:17;100776.38;;;6.31;100.00
73817;BME280;62146;53.232;-1.304;2023-02-01T04:55:44;100781.47;;;6.26;100.00
73817;BME280;62146;53.232;-1.304;2023-02-01T04:58:10;100785.91;;;6.26;100.00
73817;BME280;62146;53.232;-1.304;2023-02-01T05:00:37;100775.00;;;6.29;100.00
73817;BME280;62146;53.232;-1.304;2023-02-01T05:03:04;100793.00;;;6.32;100.00
73817;BME280;62146;53.232;-1.304;2023-02-01T05:05:30;100785.09;;;6.32;100.00
73817;BME280;62146;53.232;-1.304;2023-02-01T05:07:57;100774.38;;;6.33;100.00
73817;BME280;62146;53.232;-1.304;2023-02-01T05:10:23;100777.81;;;6.34;100.00
73817;BME280;62146;53.232;-1.304;2023-02-01T05:12:50;100777.00;;;6.33;100.00
73817;BME280;62146;53.232;-1.304;2023-02-01T05:15:35;100782.47;;;6.32;100.00
73817;BME280;62146;53.232;-1.304;2023-02-01T05:18:02;100772.53;;;6.34;100.00
73817;BME280;62146;53.232;-1.304;2023-02-01T05:20:28;100782.06;;;6.35;100.00
73817;BME280;62146;53.232;-1.304;2023-02-01T05:22:55;100785.50;;;6.35;100.00
73817;BME280;62146;53.232;-1.304;2023-02-01T05:25:22;100774.78;;;6.37;100.00
73817;BME280;62146;53.232;-1.304;2023-02-01T05:27:48;100790.59;;;6.37;100.00
73817;BME280;62146;53.232;-1.304;2023-02-01T05:30:15;100787.72;;;6.38;100.00
73817;BME280;62146;53.232;-1.304;2023-02-01T05:32:42;100800.69;;;6.40;100.00
73817;BME280;62146;53.232;-1.304;2023-02-01T05:35:09;100796.03;;;6.41;100.00
73817;BME280;62146;53.232;-1.304;2023-02-01T05:37:35;100808.41;;;6.41;100.00
73817;BME280;62146;53.232;-1.304;2023-02-01T05:40:02;100799.88;;;6.39;100.00
73817;BME280;62146;53.232;-1.304;2023-02-01T05:42:29;100814.88;;;6.39;100.00
73817;BME280;62146;53.232;-1.304;2023-02-01T05:44:55;100818.72;;;6.42;100.00
73817;BME280;62146;53.232;-1.304;2023-02-01T05:47:22;100811.44;;;6.44;100.00
73817;BME280;62146;53.232;-1.304;2023-02-01T05:49:48;100832.31;;;6.46;100.00
73817;BME280;62146;53.232;-1.304;2023-02-01T05:52:15;100833.91;;;6.47;100.00
73817;BME280;62146;53.232;-1.304;2023-02-01T05:54:46;100825.81;;;6.48;100.00
73817;BME280;62146;53.232;-1.304;2023-02-01T05:57:15;100821.59;;;6.47;100.00
73817;BME280;62146;53.232;-1.304;2023-02-01T05:59:42;100816.31;;;6.47;100.00
73817;BME280;62146;53.232;-1.304;2023-02-01T06:02:11;100805.78;;;6.47;100.00
73817;BME280;62146;53.232;-1.304;2023-02-01T06:04:38;100805.16;;;6.45;100.00
73817;BME280;62146;53.232;-1.304;2023-02-01T06:07:07;100803.72;;;6.49;100.00
73817;BME280;62146;53.232;-1.304;2023-02-01T06:09:35;100809.22;;;6.48;100.00
73817;BME280;62146;53.232;-1.304;2023-02-01T06:12:02;100803.94;;;6.48;100.00
73817;BME280;62146;53.232;-1.304;2023-02-01T06:14:29;100796.84;;;6.48;100.00
73817;BME280;62146;53.232;-1.304;2023-02-01T06:16:56;100787.94;;;6.49;100.00
73817;BME280;62146;53.232;-1.304;2023-02-01T06:19:23;100782.66;;;6.49;100.00
73817;BME280;62146;53.232;-1.304;2023-02-01T06:21:50;100791.19;;;6.51;100.00
73817;BME280;62146;53.232;-1.304;2023-02-01T06:24:16;100808.19;;;6.49;100.00
73817;BME280;62146;53.232;-1.304;2023-02-01T06:26:43;100785.28;;;6.49;100.00
73817;BME280;62146;53.232;-1.304;2023-02-01T06:29:10;100792.97;;;6.51;100.00
73817;BME280;62146;53.232;-1.304;2023-02-01T06:31:37;100824.41;;;6.52;100.00
73817;BME280;62146;53.232;-1.304;2023-02-01T06:34:03;100796.03;;;6.54;100.00
73817;BME280;62146;53.232;-1.304;2023-02-01T06:36:30;100797.03;;;6.53;100.00
73817;BME280;62146;53.232;-1.304;2023-02-01T06:38:56;100780.84;;;6.56;100.00
73817;BME280;62146;53.232;-1.304;2023-02-01T06:41:25;100799.06;;;6.58;100.00
73817;BME280;62146;53.232;-1.304;2023-02-01T06:43:54;100803.53;;;6.57;100.00
73817;BME280;62146;53.232;-1.304;2023-02-01T06:46:21;100783.06;;;6.59;100.00
73817;BME280;62146;53.232;-1.304;2023-02-01T06:48:48;100784.69;;;6.60;100.00
73817;BME280;62146;53.232;-1.304;2023-02-01T06:51:25;100781.66;;;6.63;100.00
73817;BME280;62146;53.232;-1.304;2023-02-01T06:53:52;100789.72;;;6.62;100.00
73817;BME280;62146;53.232;-1.304;2023-02-01T06:56:19;100803.31;;;6.65;100.00
73817;BME280;62146;53.232;-1.304;2023-02-01T06:58:46;100812.03;;;6.66;100.00
73817;BME280;62146;53.232;-1.304;2023-02-01T07:01:13;100798.66;;;6.67;100.00
73817;BME280;62146;53.232;-1.304;2023-02-01T07:03:40;100803.94;;;6.67;100.00
73817;BME280;62146;53.232;-1.304;2023-02-01T07:06:08;100797.63;;;6.68;100.00
73817;BME280;62146;53.232;-1.304;2023-02-01T07:08:37;100793.19;;;6.68;100.00
73817;BME280;62146;53.232;-1.304;2023-02-01T07:11:05;100777.59;;;6.67;100.00
73817;BME280;62146;53.232;-1.304;2023-02-01T07:13:32;100799.88;;;6.71;100.00
73817;BME280;62146;53.232;-1.304;2023-02-01T07:16:00;100791.16;;;6.70;100.00
73817;BME280;62146;53.232;-1.304;2023-02-01T07:18:28;100803.31;;;6.71;100.00
73817;BME280;62146;53.232;-1.304;2023-02-01T07:20:56;100799.06;;;6.70;100.00
73817;BME280;62146;53.232;-1.304;2023-02-01T07:23:23;100797.81;;;6.73;100.00
73817;BME280;62146;53.232;-1.304;2023-02-01T07:25:56;100798.63;;;6.73;100.00
73817;BME280;62146;53.232;-1.304;2023-02-01T07:28:24;100811.81;;;6.73;100.00
73817;BME280;62146;53.232;-1.304;2023-02-01T07:30:51;100821.13;;;6.69;100.00
73817;BME280;62146;53.232;-1.304;2023-02-01T07:33:22;100819.53;;;6.75;100.00
73817;BME280;62146;53.232;-1.304;2023-02-01T07:35:51;100822.97;;;6.75;100.00
73817;BME280;62146;53.232;-1.304;2023-02-01T07:38:18;100832.72;;;6.75;100.00
73817;BME280;62146;53.232;-1.304;2023-02-01T07:40:45;100834.09;;;6.77;100.00
73817;BME280;62146;53.232;-1.304;2023-02-01T07:43:12;100825.38;;;6.77;100.00
73817;BME280;62146;53.232;-1.304;2023-02-01T07:45:39;100823.78;;;6.76;100.00
73817;BME280;62146;53.232;-1.304;2023-02-01T07:48:06;100827.03;;;6.78;100.00
73817;BME280;62146;53.232;-1.304;2023-02-01T07:50:34;100817.88;;;6.80;100.00
73817;BME280;62146;53.232;-1.304;2023-02-01T07:53:01;100824.78;;;6.81;100.00
73817;BME280;62146;53.232;-1.304;2023-02-01T07:55:28;100840.59;;;6.81;100.00
73817;BME280;62146;53.232;-1.304;2023-02-01T07:57:57;100835.72;;;6.85;100.00
73817;BME280;62146;53.232;-1.304;2023-02-01T08:00:25;100837.34;;;6.86;100.00
73817;BME280;62146;53.232;-1.304;2023-02-01T08:03:11;100847.28;;;6.84;100.00
73817;BME280;62146;53.232;-1.304;2023-02-01T08:05:37;100838.56;;;6.83;100.00
73817;BME280;62146;53.232;-1.304;2023-02-01T08:08:04;100847.06;;;6.85;100.00
73817;BME280;62146;53.232;-1.304;2023-02-01T08:10:31;100837.34;;;6.86;100.00
73817;BME280;62146;53.232;-1.304;2023-02-01T08:12:58;100832.47;;;6.89;100.00
73817;BME280;62146;53.232;-1.304;2023-02-01T08:15:29;100825.16;;;6.91;100.00
73817;BME280;62146;53.232;-1.304;2023-02-01T08:17:56;100828.63;;;6.92;100.00
73817;BME280;62146;53.232;-1.304;2023-02-01T08:20:23;100829.22;;;6.94;100.00
73817;BME280;62146;53.232;-1.304;2023-02-01T08:22:50;100823.97;;;6.94;100.00
73817;BME280;62146;53.232;-1.304;2023-02-01T08:25:20;100817.66;;;6.94;100.00
73817;BME280;62146;53.232;-1.304;2023-02-01T08:27:47;100806.72;;;6.97;100.00
73817;BME280;62146;53.232;-1.304;2023-02-01T08:30:13;100805.69;;;6.98;100.00
73817;BME280;62146;53.232;-1.304;2023-02-01T08:32:40;100815.44;;;6.98;100.00
73817;BME280;62146;53.232;-1.304;2023-02-01T08:35:07;100824.94;;;6.99;100.00
73817;BME280;62146;53.232;-1.304;2023-02-01T08:37:34;100838.13;;;6.99;100.00
73817;BME280;62146;53.232;-1.304;2023-02-01T08:40:01;100845.81;;;7.00;100.00
73817;BME280;62146;53.232;-1.304;2023-02-01T08:42:27;100849.06;;;7.02;100.00
73817;BME280;62146;53.232;-1.304;2023-02-01T08:45:12;100834.69;;;7.05;100.00
73817;BME280;62146;53.232;-1.304;2023-02-01T08:47:40;100845.63;;;7.08;100.00
73817;BME280;62146;53.232;-1.304;2023-02-01T08:50:07;100838.09;;;7.12;100.00
73817;BME280;62146;53.232;-1.304;2023-02-01T08:52:34;100839.53;;;7.14;100.00
73817;BME280;62146;53.232;-1.304;2023-02-01T08:55:03;100854.72;;;7.19;100.00
73817;BME280;62146;53.232;-1.304;2023-02-01T08:57:30;100850.06;;;7.21;100.00
73817;BME280;62146;53.232;-1.304;2023-02-01T08:59:57;100842.53;;;7.24;100.00
73817;BME280;62146;53.232;-1.304;2023-02-01T09:02:23;100846.38;;;7.28;100.00
73817;BME280;62146;53.232;-1.304;2023-02-01T09:04:50;100853.69;;;7.32;100.00
73817;BME280;62146;53.232;-1.304;2023-02-01T09:07:16;100865.84;;;7.33;100.00
73817;BME280;62146;53.232;-1.304;2023-02-01T09:09:45;100867.25;;;7.36;100.00
73817;BME280;62146;53.232;-1.304;2023-02-01T09:12:11;100858.94;;;7.39;100.00
73817;BME280;62146;53.232;-1.304;2023-02-01T09:14:38;100874.31;;;7.42;100.00
73817;BME280;62146;53.232;-1.304;2023-02-01T09:17:04;100859.69;;;7.46;100.00
73817;BME280;62146;53.232;-1.304;2023-02-01T09:19:34;100872.47;;;7.48;100.00
73817;BME280;62146;53.232;-1.304;2023-02-01T09:22:00;100862.31;;;7.52;100.00
73817;BME280;62146;53.232;-1.304;2023-02-01T09:24:27;100883.03;;;7.55;100.00
73817;BME280;62146;53.232;-1.304;2023-02-01T09:26:54;100875.50;;;7.58;100.00
73817;BME280;62146;53.232;-1.304;2023-02-01T09:29:20;100876.91;;;7.61;100.00
73817;BME280;62146;53.232;-1.304;2023-02-01T09:31:47;100886.25;;;7.63;100.00
73817;BME280;62146;53.232;-1.304;2023-02-01T09:34:28;100888.47;;;7.66;100.00
73817;BME280;62146;53.232;-1.304;2023-02-01T09:36:54;100890.66;;;7.69;100.00
73817;BME280;62146;53.232;-1.304;2023-02-01T09:39:21;100892.91;;;7.72;100.00
73817;BME280;62146;53.232;-1.304;2023-02-01T09:47:12;100899.34;;;7.82;100.00
73817;BME280;62146;53.232;-1.304;2023-02-01T09:49:48;100904.41;;;7.84;100.00
73817;BME280;62146;53.232;-1.304;2023-02-01T09:52:26;100904.00;;;7.87;100.00
73817;BME280;62146;53.232;-1.304;2023-02-01T09:55:01;100897.50;;;7.89;100.00
73817;BME280;62146;53.232;-1.304;2023-02-01T10:00:30;100892.19;;;7.96;100.00
73817;BME280;62146;53.232;-1.304;2023-02-01T10:03:02;100906.56;;;8.00;100.00
73817;BME280;62146;53.232;-1.304;2023-02-01T10:11:09;100890.53;;;8.07;100.00
73817;BME280;62146;53.232;-1.304;2023-02-01T10:20:10;100908.94;;;8.20;100.00
73817;BME280;62146;53.232;-1.304;2023-02-01T10:22:54;100910.56;;;8.21;100.00
73817;BME280;62146;53.232;-1.304;2023-02-01T10:25:56;100924.78;;;8.27;100.00
73817;BME280;62146;53.232;-1.304;2023-02-01T10:28:33;100934.09;;;8.29;100.00
73817;BME280;62146;53.232;-1.304;2023-02-01T10:31:03;100932.88;;;8.31;100.00
73817;BME280;62146;53.232;-1.304;2023-02-01T10:33:33;100939.56;;;8.34;100.00
73817;BME280;62146;53.232;-1.304;2023-02-01T10:36:19;100940.78;;;8.38;100.00
73817;BME280;62146;53.232;-1.304;2023-02-01T10:38:48;100944.00;;;8.40;100.00
73817;BME280;62146;53.232;-1.304;2023-02-01T10:41:17;100941.97;;;8.42;100.00
73817;BME280;62146;53.232;-1.304;2023-02-01T10:43:48;100952.09;;;8.45;100.00
73817;BME280;62146;53.232;-1.304;2023-02-01T10:46:16;100940.28;;;8.47;100.00
73817;BME280;62146;53.232;-1.304;2023-02-01T10:48:44;100952.28;;;8.50;100.00
73817;BME280;62146;53.232;-1.304;2023-02-01T10:51:24;100952.06;;;8.51;100.00
73817;BME280;62146;53.232;-1.304;2023-02-01T10:56:25;100960.97;;;8.56;100.00
73817;BME280;62146;53.232;-1.304;2023-02-01T10:59:02;100962.38;;;8.59;100.00
73817;BME280;62146;53.232;-1.304;2023-02-01T11:01:39;100957.09;;;8.59;100.00
73817;BME280;62146;53.232;-1.304;2023-02-01T11:04:18;100948.75;;;8.62;100.00
73817;BME280;62146;53.232;-1.304;2023-02-01T11:06:49;100953.00;;;8.63;100.00
73817;BME280;62146;53.232;-1.304;2023-02-01T11:09:24;100952.56;;;8.66;100.00
73817;BME280;62146;53.232;-1.304;2023-02-01T11:16:50;100973.69;;;8.72;100.00
73817;BME280;62146;53.232;-1.304;2023-02-01T11:19:18;100969.22;;;8.73;100.00
73817;BME280;62146;53.232;-1.304;2023-02-01T11:21:50;100975.31;;;8.73;100.00
73817;BME280;62146;53.232;-1.304;2023-02-01T11:24:23;100985.66;;;8.75;100.00
73817;BME280;62146;53.232;-1.304;2023-02-01T11:26:50;100979.94;;;8.78;100.00
73817;BME280;62146;53.232;-1.304;2023-02-01T11:29:19;100970.19;;;8.78;100.00
73817;BME280;62146;53.232;-1.304;2023-02-01T11:31:51;100975.03;;;8.81;100.00
73817;BME280;62146;53.232;-1.304;2023-02-01T11:34:20;100968.72;;;8.82;100.00
73817;BME280;62146;53.232;-1.304;2023-02-01T11:36:49;100968.31;;;8.85;100.00
73817;BME280;62146;53.232;-1.304;2023-02-01T11:39:26;100972.38;;;8.87;100.00
73817;BME280;62146;53.232;-1.304;2023-02-01T11:44:38;100967.44;;;8.91;100.00
73817;BME280;62146;53.232;-1.304;2023-02-01T11:47:29;100960.31;;;8.91;100.00
73817;BME280;62146;53.232;-1.304;2023-02-01T11:50:02;100956.44;;;8.94;100.00
73817;BME280;62146;53.232;-1.304;2023-02-01T11:56:02;100957.41;;;8.99;100.00
73817;BME280;62146;53.232;-1.304;2023-02-01T11:58:38;100960.88;;;9.00;100.00
73817;BME280;62146;53.232;-1.304;2023-02-01T12:28:53;100953.56;;;9.19;100.00
73817;BME280;62146;53.232;-1.304;2023-02-01T12:36:48;100941.91;;;9.27;100.00
73817;BME280;62146;53.232;-1.304;2023-02-01T12:39:26;100938.59;;;9.31;100.00
73817;BME280;62146;53.232;-1.304;2023-02-01T12:47:17;100929.34;;;9.40;100.00
73817;BME280;62146;53.232;-1.304;2023-02-01T12:49:50;100922.00;;;9.42;100.00
73817;BME280;62146;53.232;-1.304;2023-02-01T12:52:38;100926.06;;;9.44;100.00
73817;BME280;62146;53.232;-1.304;2023-02-01T12:58:21;100922.28;;;9.52;100.00
73817;BME280;62146;53.232;-1.304;2023-02-01T13:00:54;100925.31;;;9.55;100.00
73817;BME280;62146;53.232;-1.304;2023-02-01T13:11:29;100915.47;;;9.62;100.00
73817;BME280;62146;53.232;-1.304;2023-02-01T13:19:47;100901.72;;;9.71;100.00
73817;BME280;62146;53.232;-1.304;2023-02-01T13:22:13;100900.63;;;9.79;100.00
73817;BME280;62146;53.232;-1.304;2023-02-01T13:27:16;100904.06;;;9.79;100.00
73817;BME280;62146;53.232;-1.304;2023-02-01T13:36:22;100886.47;;;9.85;100.00
73817;BME280;62146;53.232;-1.304;2023-02-01T13:42:13;100893.41;;;9.86;100.00
73817;BME280;62146;53.232;-1.304;2023-02-01T13:44:45;100895.84;;;9.87;100.00
73817;BME280;62146;53.232;-1.304;2023-02-01T13:49:46;100898.06;;;9.90;100.00
73817;BME280;62146;53.232;-1.304;2023-02-01T13:52:40;100890.09;;;9.90;100.00
73817;BME280;62146;53.232;-1.304;2023-02-01T13:57:50;100892.53;;;9.91;100.00
73817;BME280;62146;53.232;-1.304;2023-02-01T14:00:38;100888.84;;;9.92;100.00
73817;BME280;62146;53.232;-1.304;2023-02-01T14:13:40;100908.25;;;10.04;100.00
73817;BME280;62146;53.232;-1.304;2023-02-01T14:16:13;100909.03;;;10.05;100.00
73817;BME280;62146;53.232;-1.304;2023-02-01T14:26:46;100920.38;;;10.12;100.00
73817;BME280;62146;53.232;-1.304;2023-02-01T14:32:06;100931.34;;;10.15;100.00
73817;BME280;62146;53.232;-1.304;2023-02-01T14:44:56;100931.09;;;10.16;100.00
73817;BME280;62146;53.232;-1.304;2023-02-01T14:47:41;100943.56;;;10.16;100.00
73817;BME280;62146;53.232;-1.304;2023-02-01T14:53:10;100952.91;;;10.18;100.00
73817;BME280;62146;53.232;-1.304;2023-02-01T15:01:06;100961.09;;;10.17;100.00
73817;BME280;62146;53.232;-1.304;2023-02-01T15:06:26;100978.81;;;10.16;100.00
73817;BME280;62146;53.232;-1.304;2023-02-01T15:08:57;100979.03;;;10.15;100.00
73817;BME280;62146;53.232;-1.304;2023-02-01T15:11:25;100992.06;;;10.16;100.00
73817;BME280;62146;53.232;-1.304;2023-02-01T15:13:53;100988.03;;;10.14;100.00
73817;BME280;62146;53.232;-1.304;2023-02-01T15:16:23;100995.56;;;10.17;100.00
73817;BME280;62146;53.232;-1.304;2023-02-01T15:18:50;100994.94;;;10.15;100.00
73817;BME280;62146;53.232;-1.304;2023-02-01T15:21:43;101012.47;;;10.16;100.00
73817;BME280;62146;53.232;-1.304;2023-02-01T15:24:31;101008.19;;;10.15;100.00
73817;BME280;62146;53.232;-1.304;2023-02-01T15:27:05;101007.97;;;10.16;100.00
73817;BME280;62146;53.232;-1.304;2023-02-01T15:29:32;101016.94;;;10.16;100.00
73817;BME280;62146;53.232;-1.304;2023-02-01T15:32:00;101010.63;;;10.16;100.00
73817;BME280;62146;53.232;-1.304;2023-02-01T15:34:47;101019.97;;;10.19;100.00
73817;BME280;62146;53.232;-1.304;2023-02-01T15:37:15;101015.91;;;10.16;100.00
73817;BME280;62146;53.232;-1.304;2023-02-01T15:42:54;101021.22;;;10.16;100.00
73817;BME280;62146;53.232;-1.304;2023-02-01T15:45:25;101031.81;;;10.16;100.00
73817;BME280;62146;53.232;-1.304;2023-02-01T15:47:55;101034.47;;;10.16;100.00
73817;BME280;62146;53.232;-1.304;2023-02-01T15:50:22;101028.34;;;10.16;100.00
73817;BME280;62146;53.232;-1.304;2023-02-01T15:52:53;101047.72;;;10.16;100.00
73817;BME280;62146;53.232;-1.304;2023-02-01T15:57:59;101034.13;;;10.13;100.00
73817;BME280;62146;53.232;-1.304;2023-02-01T16:00:28;101033.53;;;10.11;100.00